sensor_id;sensor_type;location;lat;lon;timestamp;temperature;humidity
10873;DHT22;34586;53.616;10.032;2022-09-03T00:00:08;15.70;99.90
10873;DHT22;34586;53.616;10.032;2022-09-03T00:02:43;15.70;99.90
10873;DHT22;34586;53.616;10.032;2022-09-03T00:05:25;15.70;99.90
10873;DHT22;34586;53.616;10.032;2022-09-03T00:08:20;15.70;99.90
10873;DHT22;34586;53.616;10.032;2022-09-03T00:11:15;15.70;99.90
10873;DHT22;34586;53.616;10.032;2022-09-03T00:13:58;15.60;99.90
10873;DHT22;34586;53.616;10.032;2022-09-03T00:16:30;15.70;99.90
10873;DHT22;34586;53.616;10.032;2022-09-03T00:19:01;15.60;99.90
10873;DHT22;34586;53.616;10.032;2022-09-03T00:24:20;15.50;1.00
10873;DHT22;34586;53.616;10.032;2022-09-03T00:26:52;15.50;1.00
10873;DHT22;34586;53.616;10.032;2022-09-03T00:29:34;15.40;1.00
10873;DHT22;34586;53.616;10.032;2022-09-03T00:32:10;15.50;1.00
10873;DHT22;34586;53.616;10.032;2022-09-03T00:34:42;15.40;1.00
10873;DHT22;34586;53.616;10.032;2022-09-03T00:37:10;15.40;1.00
10873;DHT22;34586;53.616;10.032;2022-09-03T00:39:36;15.30;1.00
10873;DHT22;34586;53.616;10.032;2022-09-03T00:48:25;15.30;13.90
10873;DHT22;34586;53.616;10.032;2022-09-03T00:54:01;15.20;99.90
10873;DHT22;34586;53.616;10.032;2022-09-03T00:56:42;15.10;99.90
10873;DHT22;34586;53.616;10.032;2022-09-03T01:05:09;15.00;99.90
10873;DHT22;34586;53.616;10.032;2022-09-03T01:07:53;15.00;99.90
10873;DHT22;34586;53.616;10.032;2022-09-03T01:13:16;15.00;99.90
10873;DHT22;34586;53.616;10.032;2022-09-03T01:15:55;15.00;99.90
10873;DHT22;34586;53.616;10.032;2022-09-03T01:18:39;15.10;99.90
10873;DHT22;34586;53.616;10.032;2022-09-03T01:21:37;15.00;99.90
10873;DHT22;34586;53.616;10.032;2022-09-03T01:35:37;15.00;99.90
10873;DHT22;34586;53.616;10.032;2022-09-03T01:40:59;15.00;99.90
10873;DHT22;34586;53.616;10.032;2022-09-03T01:46:38;15.00;99.90
10873;DHT22;34586;53.616;10.032;2022-09-03T01:51:35;14.90;99.90
10873;DHT22;34586;53.616;10.032;2022-09-03T01:57:06;14.90;99.90
10873;DHT22;34586;53.616;10.032;2022-09-03T02:02:47;14.80;1.00
10873;DHT22;34586;53.616;10.032;2022-09-03T02:05:25;14.70;1.00
10873;DHT22;34586;53.616;10.032;2022-09-03T02:08:03;14.70;1.00
10873;DHT22;34586;53.616;10.032;2022-09-03T02:10:41;14.70;1.00
10873;DHT22;34586;53.616;10.032;2022-09-03T02:13:25;14.70;1.00
10873;DHT22;34586;53.616;10.032;2022-09-03T02:15:56;14.70;1.00
10873;DHT22;34586;53.616;10.032;2022-09-03T02:18:39;14.60;1.00
10873;DHT22;34586;53.616;10.032;2022-09-03T02:21:06;14.60;1.00
10873;DHT22;34586;53.616;10.032;2022-09-03T02:23:32;14.60;1.00
10873;DHT22;34586;53.616;10.032;2022-09-03T02:26:01;14.50;1.00
10873;DHT22;34586;53.616;10.032;2022-09-03T02:28:28;14.50;1.00
10873;DHT22;34586;53.616;10.032;2022-09-03T02:30:55;14.50;1.00
10873;DHT22;34586;53.616;10.032;2022-09-03T02:33:21;14.50;1.00
10873;DHT22;34586;53.616;10.032;2022-09-03T02:35:47;14.40;99.90
10873;DHT22;34586;53.616;10.032;2022-09-03T02:38:19;14.40;53.10
10873;DHT22;34586;53.616;10.032;2022-09-03T02:40:45;14.40;75.60
10873;DHT22;34586;53.616;10.032;2022-09-03T02:43:18;14.40;44.40
10873;DHT22;34586;53.616;10.032;2022-09-03T02:45:47;14.40;99.90
10873;DHT22;34586;53.616;10.032;2022-09-03T02:48:16;14.30;1.00
10873;DHT22;34586;53.616;10.032;2022-09-03T02:50:43;14.30;99.90
10873;DHT22;34586;53.616;10.032;2022-09-03T02:53:09;14.30;99.90
10873;DHT22;34586;53.616;10.032;2022-09-03T02:55:34;14.30;99.90
10873;DHT22;34586;53.616;10.032;2022-09-03T02:58:00;14.30;99.90
10873;DHT22;34586;53.616;10.032;2022-09-03T03:00:26;14.20;99.90
10873;DHT22;34586;53.616;10.032;2022-09-03T03:02:54;14.20;1.00
10873;DHT22;34586;53.616;10.032;2022-09-03T03:08:05;14.20;99.90
10873;DHT22;34586;53.616;10.032;2022-09-03T03:10:33;14.10;1.00
10873;DHT22;34586;53.616;10.032;2022-09-03T03:12:59;14.10;1.00
10873;DHT22;34586;53.616;10.032;2022-09-03T03:15:25;14.10;1.00
10873;DHT22;34586;53.616;10.032;2022-09-03T03:17:55;14.10;1.00
10873;DHT22;34586;53.616;10.032;2022-09-03T03:20:21;14.00;1.00
10873;DHT22;34586;53.616;10.032;2022-09-03T03:22:46;14.00;1.00
10873;DHT22;34586;53.616;10.032;2022-09-03T03:25:12;13.90;1.00
10873;DHT22;34586;53.616;10.032;2022-09-03T03:27:38;14.00;1.00
10873;DHT22;34586;53.616;10.032;2022-09-03T03:30:05;14.00;61.90
10873;DHT22;34586;53.616;10.032;2022-09-03T03:32:34;13.90;1.00
10873;DHT22;34586;53.616;10.032;2022-09-03T03:35:00;13.90;99.90
10873;DHT22;34586;53.616;10.032;2022-09-03T03:37:25;13.90;28.70
10873;DHT22;34586;53.616;10.032;2022-09-03T03:39:51;13.90;99.90
10873;DHT22;34586;53.616;10.032;2022-09-03T03:42:18;13.80;99.90
10873;DHT22;34586;53.616;10.032;2022-09-03T03:44:43;13.80;1.00
10873;DHT22;34586;53.616;10.032;2022-09-03T03:47:09;13.80;99.90
10873;DHT22;34586;53.616;10.032;2022-09-03T03:49:35;13.90;99.90
10873;DHT22;34586;53.616;10.032;2022-09-03T03:52:01;13.90;1.00
10873;DHT22;34586;53.616;10.032;2022-09-03T03:54:29;13.90;99.90
10873;DHT22;34586;53.616;10.032;2022-09-03T03:56:55;13.80;99.90
10873;DHT22;34586;53.616;10.032;2022-09-03T03:59:20;13.80;1.00
10873;DHT22;34586;53.616;10.032;2022-09-03T04:01:46;13.80;99.90
10873;DHT22;34586;53.616;10.032;2022-09-03T04:04:13;13.70;99.90
10873;DHT22;34586;53.616;10.032;2022-09-03T04:06:38;13.80;99.90
10873;DHT22;34586;53.616;10.032;2022-09-03T04:09:04;13.70;99.90
10873;DHT22;34586;53.616;10.032;2022-09-03T04:11:31;13.80;99.90
10873;DHT22;34586;53.616;10.032;2022-09-03T04:13:56;13.80;99.90
10873;DHT22;34586;53.616;10.032;2022-09-03T04:16:24;13.80;11.80
10873;DHT22;34586;53.616;10.032;2022-09-03T04:18:51;13.80;8.90
10873;DHT22;34586;53.616;10.032;2022-09-03T04:21:20;13.80;26.60
10873;DHT22;34586;53.616;10.032;2022-09-03T04:23:47;13.80;1.00
10873;DHT22;34586;53.616;10.032;2022-09-03T04:26:16;13.80;1.00
10873;DHT22;34586;53.616;10.032;2022-09-03T04:28:42;14.70;1.00
10873;DHT22;34586;53.616;10.032;2022-09-03T04:31:11;13.80;1.00
10873;DHT22;34586;53.616;10.032;2022-09-03T04:33:37;13.80;9.70
10873;DHT22;34586;53.616;10.032;2022-09-03T04:36:06;13.70;8.70
10873;DHT22;34586;53.616;10.032;2022-09-03T04:38:33;13.70;1.00
10873;DHT22;34586;53.616;10.032;2022-09-03T04:40:59;13.70;1.00
10873;DHT22;34586;53.616;10.032;2022-09-03T04:43:26;13.70;99.90
10873;DHT22;34586;53.616;10.032;2022-09-03T04:45:55;13.60;32.30
10873;DHT22;34586;53.616;10.032;2022-09-03T04:48:22;13.60;90.40
10873;DHT22;34586;53.616;10.032;2022-09-03T04:50:47;13.80;1.00
10873;DHT22;34586;53.616;10.032;2022-09-03T04:53:13;13.60;1.00
10873;DHT22;34586;53.616;10.032;2022-09-03T04:55:38;13.70;1.00
10873;DHT22;34586;53.616;10.032;2022-09-03T04:58:06;13.70;1.00
10873;DHT22;34586;53.616;10.032;2022-09-03T05:00:32;13.70;1.00
10873;DHT22;34586;53.616;10.032;2022-09-03T05:03:01;13.70;1.00
10873;DHT22;34586;53.616;10.032;2022-09-03T05:05:32;13.70;1.00
10873;DHT22;34586;53.616;10.032;2022-09-03T05:08:01;13.80;1.00
10873;DHT22;34586;53.616;10.032;2022-09-03T05:10:27;13.80;99.90
10873;DHT22;34586;53.616;10.032;2022-09-03T05:12:57;13.80;99.90
10873;DHT22;34586;53.616;10.032;2022-09-03T05:15:23;13.80;1.00
10873;DHT22;34586;53.616;10.032;2022-09-03T05:17:55;13.80;99.90
10873;DHT22;34586;53.616;10.032;2022-09-03T05:20:20;13.80;99.90
10873;DHT22;34586;53.616;10.032;2022-09-03T05:22:47;13.90;99.90
10873;DHT22;34586;53.616;10.032;2022-09-03T05:25:13;13.90;99.90
10873;DHT22;34586;53.616;10.032;2022-09-03T05:27:38;13.90;99.90
10873;DHT22;34586;53.616;10.032;2022-09-03T05:30:04;14.00;99.90
10873;DHT22;34586;53.616;10.032;2022-09-03T05:32:31;14.00;32.30
10873;DHT22;34586;53.616;10.032;2022-09-03T05:34:57;14.10;1.00
10873;DHT22;34586;53.616;10.032;2022-09-03T05:37:24;14.10;60.60
10873;DHT22;34586;53.616;10.032;2022-09-03T05:39:50;14.10;1.00
10873;DHT22;34586;53.616;10.032;2022-09-03T05:42:16;14.10;1.00
10873;DHT22;34586;53.616;10.032;2022-09-03T05:44:42;14.10;1.00
10873;DHT22;34586;53.616;10.032;2022-09-03T05:47:08;14.20;1.00
10873;DHT22;34586;53.616;10.032;2022-09-03T05:49:34;14.30;1.00
10873;DHT22;34586;53.616;10.032;2022-09-03T05:52:00;14.30;1.00
10873;DHT22;34586;53.616;10.032;2022-09-03T05:54:26;14.40;99.90
10873;DHT22;34586;53.616;10.032;2022-09-03T05:56:51;14.40;99.90
10873;DHT22;34586;53.616;10.032;2022-09-03T05:59:17;14.50;99.90
10873;DHT22;34586;53.616;10.032;2022-09-03T06:01:44;14.60;99.90
10873;DHT22;34586;53.616;10.032;2022-09-03T06:04:12;14.60;51.70
10873;DHT22;34586;53.616;10.032;2022-09-03T06:06:41;14.80;1.00
10873;DHT22;34586;53.616;10.032;2022-09-03T06:09:09;15.00;1.00
10873;DHT22;34586;53.616;10.032;2022-09-03T06:11:37;15.10;1.00
10873;DHT22;34586;53.616;10.032;2022-09-03T06:14:06;15.20;99.90
10873;DHT22;34586;53.616;10.032;2022-09-03T06:16:34;15.30;99.90
10873;DHT22;34586;53.616;10.032;2022-09-03T06:19:00;15.10;99.90
10873;DHT22;34586;53.616;10.032;2022-09-03T06:21:26;15.20;99.90
10873;DHT22;34586;53.616;10.032;2022-09-03T06:23:54;15.30;99.90
10873;DHT22;34586;53.616;10.032;2022-09-03T06:26:22;15.20;99.90
10873;DHT22;34586;53.616;10.032;2022-09-03T06:28:48;15.20;99.90
10873;DHT22;34586;53.616;10.032;2022-09-03T06:31:16;15.20;1.00
10873;DHT22;34586;53.616;10.032;2022-09-03T06:33:43;15.30;1.00
10873;DHT22;34586;53.616;10.032;2022-09-03T06:36:11;15.30;99.90
10873;DHT22;34586;53.616;10.032;2022-09-03T06:38:38;15.30;99.90
10873;DHT22;34586;53.616;10.032;2022-09-03T06:41:12;15.40;99.90
10873;DHT22;34586;53.616;10.032;2022-09-03T06:43:40;15.40;1.00
10873;DHT22;34586;53.616;10.032;2022-09-03T06:46:12;15.40;99.90
10873;DHT22;34586;53.616;10.032;2022-09-03T06:48:39;15.60;99.90
10873;DHT22;34586;53.616;10.032;2022-09-03T06:51:30;15.60;99.90
10873;DHT22;34586;53.616;10.032;2022-09-03T06:54:08;15.60;99.40
10873;DHT22;34586;53.616;10.032;2022-09-03T06:56:35;15.80;49.10
10873;DHT22;34586;53.616;10.032;2022-09-03T06:59:12;15.80;86.20
10873;DHT22;34586;53.616;10.032;2022-09-03T07:01:38;15.90;1.00
10873;DHT22;34586;53.616;10.032;2022-09-03T07:04:05;15.90;1.00
10873;DHT22;34586;53.616;10.032;2022-09-03T07:06:39;15.90;1.00
10873;DHT22;34586;53.616;10.032;2022-09-03T07:09:07;16.00;1.00
10873;DHT22;34586;53.616;10.032;2022-09-03T07:11:33;16.00;1.00
10873;DHT22;34586;53.616;10.032;2022-09-03T07:14:01;16.10;1.00
10873;DHT22;34586;53.616;10.032;2022-09-03T07:16:29;16.10;1.00
10873;DHT22;34586;53.616;10.032;2022-09-03T07:18:55;16.20;1.00
10873;DHT22;34586;53.616;10.032;2022-09-03T07:21:24;16.20;1.00
10873;DHT22;34586;53.616;10.032;2022-09-03T07:23:51;16.30;1.00
10873;DHT22;34586;53.616;10.032;2022-09-03T07:26:22;16.30;1.00
10873;DHT22;34586;53.616;10.032;2022-09-03T07:28:49;16.60;1.00
10873;DHT22;34586;53.616;10.032;2022-09-03T07:31:24;16.50;1.00
10873;DHT22;34586;53.616;10.032;2022-09-03T07:33:55;16.50;1.00
10873;DHT22;34586;53.616;10.032;2022-09-03T07:36:22;16.70;99.90
10873;DHT22;34586;53.616;10.032;2022-09-03T07:38:48;16.80;99.90
10873;DHT22;34586;53.616;10.032;2022-09-03T07:41:14;17.10;1.00
10873;DHT22;34586;53.616;10.032;2022-09-03T07:43:45;16.80;99.90
10873;DHT22;34586;53.616;10.032;2022-09-03T07:46:13;16.90;99.90
10873;DHT22;34586;53.616;10.032;2022-09-03T07:48:42;17.00;99.90
10873;DHT22;34586;53.616;10.032;2022-09-03T07:51:08;17.10;99.90
10873;DHT22;34586;53.616;10.032;2022-09-03T07:53:34;17.10;99.90
10873;DHT22;34586;53.616;10.032;2022-09-03T07:56:07;17.20;99.90
10873;DHT22;34586;53.616;10.032;2022-09-03T07:58:33;17.30;99.90
10873;DHT22;34586;53.616;10.032;2022-09-03T08:01:10;17.40;71.90
10873;DHT22;34586;53.616;10.032;2022-09-03T08:03:59;17.50;99.90
10873;DHT22;34586;53.616;10.032;2022-09-03T08:06:29;17.60;1.00
10873;DHT22;34586;53.616;10.032;2022-09-03T08:09:00;17.70;1.00
10873;DHT22;34586;53.616;10.032;2022-09-03T08:11:27;17.70;1.00
10873;DHT22;34586;53.616;10.032;2022-09-03T08:14:04;17.80;1.00
10873;DHT22;34586;53.616;10.032;2022-09-03T08:16:35;18.00;1.00
10873;DHT22;34586;53.616;10.032;2022-09-03T08:19:02;17.90;1.00
10873;DHT22;34586;53.616;10.032;2022-09-03T08:21:28;17.90;1.00
10873;DHT22;34586;53.616;10.032;2022-09-03T08:23:55;17.90;1.00
10873;DHT22;34586;53.616;10.032;2022-09-03T08:26:32;18.00;1.00
10873;DHT22;34586;53.616;10.032;2022-09-03T08:28:58;18.20;1.00
10873;DHT22;34586;53.616;10.032;2022-09-03T08:31:24;18.20;1.00
10873;DHT22;34586;53.616;10.032;2022-09-03T08:33:53;18.40;99.90
10873;DHT22;34586;53.616;10.032;2022-09-03T08:36:29;18.50;99.90
10873;DHT22;34586;53.616;10.032;2022-09-03T08:38:57;18.60;99.90
10873;DHT22;34586;53.616;10.032;2022-09-03T08:44:40;18.80;99.90
10873;DHT22;34586;53.616;10.032;2022-09-03T08:47:17;18.80;99.90
10873;DHT22;34586;53.616;10.032;2022-09-03T08:49:59;18.90;99.90
10873;DHT22;34586;53.616;10.032;2022-09-03T08:52:52;19.20;99.90
10873;DHT22;34586;53.616;10.032;2022-09-03T08:55:24;19.30;99.90
10873;DHT22;34586;53.616;10.032;2022-09-03T08:58:17;19.50;22.20
10873;DHT22;34586;53.616;10.032;2022-09-03T09:03:54;19.90;16.10
10873;DHT22;34586;53.616;10.032;2022-09-03T09:06:34;20.00;1.00
10873;DHT22;34586;53.616;10.032;2022-09-03T09:09:31;20.00;1.00
10873;DHT22;34586;53.616;10.032;2022-09-03T09:20:42;20.20;1.00
10873;DHT22;34586;53.616;10.032;2022-09-03T09:23:32;20.30;1.00
10873;DHT22;34586;53.616;10.032;2022-09-03T09:26:03;20.30;1.00
10873;DHT22;34586;53.616;10.032;2022-09-03T09:28:36;20.40;1.00
10873;DHT22;34586;53.616;10.032;2022-09-03T09:31:03;20.40;1.00
10873;DHT22;34586;53.616;10.032;2022-09-03T09:33:31;20.50;1.00
10873;DHT22;34586;53.616;10.032;2022-09-03T09:36:00;20.50;99.90
10873;DHT22;34586;53.616;10.032;2022-09-03T09:38:34;20.60;99.90
10873;DHT22;34586;53.616;10.032;2022-09-03T09:41:22;20.60;99.90
10873;DHT22;34586;53.616;10.032;2022-09-03T09:43:59;20.60;99.90
10873;DHT22;34586;53.616;10.032;2022-09-03T09:46:39;20.60;99.90
10873;DHT22;34586;53.616;10.032;2022-09-03T09:49:29;20.60;99.90
10873;DHT22;34586;53.616;10.032;2022-09-03T09:52:00;20.60;99.90
10873;DHT22;34586;53.616;10.032;2022-09-03T09:54:26;20.70;99.90
10873;DHT22;34586;53.616;10.032;2022-09-03T09:57:00;20.70;99.90
10873;DHT22;34586;53.616;10.032;2022-09-03T09:59:29;20.70;99.90
10873;DHT22;34586;53.616;10.032;2022-09-03T10:04:48;20.70;99.90
10873;DHT22;34586;53.616;10.032;2022-09-03T10:07:31;20.70;99.90
10873;DHT22;34586;53.616;10.032;2022-09-03T10:12:31;20.70;87.60
10873;DHT22;34586;53.616;10.032;2022-09-03T10:23:32;20.70;85.20
10873;DHT22;34586;53.616;10.032;2022-09-03T10:26:26;20.80;70.00
10873;DHT22;34586;53.616;10.032;2022-09-03T10:29:01;20.90;1.00
10873;DHT22;34586;53.616;10.032;2022-09-03T10:31:39;20.80;1.00
10873;DHT22;34586;53.616;10.032;2022-09-03T10:34:28;20.50;1.00
10873;DHT22;34586;53.616;10.032;2022-09-03T10:40:01;20.60;1.00
10873;DHT22;34586;53.616;10.032;2022-09-03T10:42:50;20.70;1.00
10873;DHT22;34586;53.616;10.032;2022-09-03T10:45:54;20.80;1.00
10873;DHT22;34586;53.616;10.032;2022-09-03T10:51:09;21.30;1.00
10873;DHT22;34586;53.616;10.032;2022-09-03T11:00:13;21.60;1.00
10873;DHT22;34586;53.616;10.032;2022-09-03T11:05:38;21.80;1.00
10873;DHT22;34586;53.616;10.032;2022-09-03T11:08:27;21.70;1.00
10873;DHT22;34586;53.616;10.032;2022-09-03T11:11:20;21.90;1.00
10873;DHT22;34586;53.616;10.032;2022-09-03T11:13:57;21.90;1.00
10873;DHT22;34586;53.616;10.032;2022-09-03T11:16:32;22.00;1.00
10873;DHT22;34586;53.616;10.032;2022-09-03T11:19:13;22.20;1.00
10873;DHT22;34586;53.616;10.032;2022-09-03T11:21:40;22.10;1.00
10873;DHT22;34586;53.616;10.032;2022-09-03T11:24:13;22.20;1.00
10873;DHT22;34586;53.616;10.032;2022-09-03T11:26:43;22.20;1.00
10873;DHT22;34586;53.616;10.032;2022-09-03T11:29:23;22.20;1.00
10873;DHT22;34586;53.616;10.032;2022-09-03T11:31:56;22.30;1.00
10873;DHT22;34586;53.616;10.032;2022-09-03T11:34:28;22.50;1.00
10873;DHT22;34586;53.616;10.032;2022-09-03T11:37:28;22.10;1.00
10873;DHT22;34586;53.616;10.032;2022-09-03T11:42:40;21.90;1.00
10873;DHT22;34586;53.616;10.032;2022-09-03T11:47:54;22.40;1.00
10873;DHT22;34586;53.616;10.032;2022-09-03T11:55:58;22.70;1.00
10873;DHT22;34586;53.616;10.032;2022-09-03T11:58:25;22.80;1.00
10873;DHT22;34586;53.616;10.032;2022-09-03T12:00:54;22.90;1.00
10873;DHT22;34586;53.616;10.032;2022-09-03T12:03:25;23.00;1.00
10873;DHT22;34586;53.616;10.032;2022-09-03T12:06:05;23.00;1.00
10873;DHT22;34586;53.616;10.032;2022-09-03T12:09:15;23.00;1.00
10873;DHT22;34586;53.616;10.032;2022-09-03T12:11:57;23.00;1.00
10873;DHT22;34586;53.616;10.032;2022-09-03T12:19:57;23.30;1.00
10873;DHT22;34586;53.616;10.032;2022-09-03T12:22:28;23.50;1.00
10873;DHT22;34586;53.616;10.032;2022-09-03T12:25:10;23.40;1.00
10873;DHT22;34586;53.616;10.032;2022-09-03T12:27:36;23.20;1.00
10873;DHT22;34586;53.616;10.032;2022-09-03T12:30:04;23.90;1.00
10873;DHT22;34586;53.616;10.032;2022-09-03T12:32:32;24.20;1.00
10873;DHT22;34586;53.616;10.032;2022-09-03T12:35:13;24.00;1.00
10873;DHT22;34586;53.616;10.032;2022-09-03T12:37:41;23.70;1.00
10873;DHT22;34586;53.616;10.032;2022-09-03T12:40:41;24.40;1.00
10873;DHT22;34586;53.616;10.032;2022-09-03T12:43:15;25.40;1.00
10873;DHT22;34586;53.616;10.032;2022-09-03T12:45:43;26.30;1.00
10873;DHT22;34586;53.616;10.032;2022-09-03T12:48:17;26.70;99.90
10873;DHT22;34586;53.616;10.032;2022-09-03T12:50:44;27.10;99.90
10873;DHT22;34586;53.616;10.032;2022-09-03T12:53:29;27.20;99.90
10873;DHT22;34586;53.616;10.032;2022-09-03T12:55:57;26.30;99.90
10873;DHT22;34586;53.616;10.032;2022-09-03T12:58:33;26.00;99.90
10873;DHT22;34586;53.616;10.032;2022-09-03T13:03:49;26.30;99.90
10873;DHT22;34586;53.616;10.032;2022-09-03T13:06:20;27.10;99.90
10873;DHT22;34586;53.616;10.032;2022-09-03T13:08:54;27.70;99.90
10873;DHT22;34586;53.616;10.032;2022-09-03T13:11:22;28.00;99.90
10873;DHT22;34586;53.616;10.032;2022-09-03T13:14:00;27.50;99.90
10873;DHT22;34586;53.616;10.032;2022-09-03T13:21:54;27.70;99.90
10873;DHT22;34586;53.616;10.032;2022-09-03T13:27:22;26.60;99.90
10873;DHT22;34586;53.616;10.032;2022-09-03T13:30:10;25.70;99.90
10873;DHT22;34586;53.616;10.032;2022-09-03T13:33:00;24.80;99.90
10873;DHT22;34586;53.616;10.032;2022-09-03T13:35:37;24.50;99.90
10873;DHT22;34586;53.616;10.032;2022-09-03T13:40:57;23.80;99.90
10873;DHT22;34586;53.616;10.032;2022-09-03T13:43:53;23.80;99.90
10873;DHT22;34586;53.616;10.032;2022-09-03T13:46:31;23.60;99.90
10873;DHT22;34586;53.616;10.032;2022-09-03T13:49:16;23.30;99.90
10873;DHT22;34586;53.616;10.032;2022-09-03T13:52:04;23.50;99.90
10873;DHT22;34586;53.616;10.032;2022-09-03T13:54:45;23.40;99.90
10873;DHT22;34586;53.616;10.032;2022-09-03T13:57:37;23.60;99.90
10873;DHT22;34586;53.616;10.032;2022-09-03T14:00:05;24.00;99.90
10873;DHT22;34586;53.616;10.032;2022-09-03T14:02:57;24.20;99.90
10873;DHT22;34586;53.616;10.032;2022-09-03T14:05:42;24.20;99.90
10873;DHT22;34586;53.616;10.032;2022-09-03T14:11:40;24.90;99.90
10873;DHT22;34586;53.616;10.032;2022-09-03T14:16:58;25.40;99.90
10873;DHT22;34586;53.616;10.032;2022-09-03T14:22:44;24.60;99.90
10873;DHT22;34586;53.616;10.032;2022-09-03T14:25:21;24.30;99.90
10873;DHT22;34586;53.616;10.032;2022-09-03T14:27:49;24.20;99.90
10873;DHT22;34586;53.616;10.032;2022-09-03T14:35:35;23.60;99.90
10873;DHT22;34586;53.616;10.032;2022-09-03T14:41:15;23.70;99.90
10873;DHT22;34586;53.616;10.032;2022-09-03T14:54:51;23.70;99.90
10873;DHT22;34586;53.616;10.032;2022-09-03T15:00:20;23.60;99.90
10873;DHT22;34586;53.616;10.032;2022-09-03T15:10:51;23.50;99.90
10873;DHT22;34586;53.616;10.032;2022-09-03T15:13:26;23.50;99.90
10873;DHT22;34586;53.616;10.032;2022-09-03T15:27:22;23.00;99.90
10873;DHT22;34586;53.616;10.032;2022-09-03T15:30:31;22.90;99.90
10873;DHT22;34586;53.616;10.032;2022-09-03T15:33:14;22.80;99.90
10873;DHT22;34586;53.616;10.032;2022-09-03T15:35:50;22.70;99.90
10873;DHT22;34586;53.616;10.032;2022-09-03T15:41:16;22.50;99.90
10873;DHT22;34586;53.616;10.032;2022-09-03T15:43:48;22.30;99.90
10873;DHT22;34586;53.616;10.032;2022-09-03T15:49:24;22.20;99.90
10873;DHT22;34586;53.616;10.032;2022-09-03T15:52:14;22.20;99.90
10873;DHT22;34586;53.616;10.032;2022-09-03T15:54:58;22.20;99.90
10873;DHT22;34586;53.616;10.032;2022-09-03T15:57:53;22.20;99.90
10873;DHT22;34586;53.616;10.032;2022-09-03T16:00:30;22.30;99.90
10873;DHT22;34586;53.616;10.032;2022-09-03T16:03:10;22.20;99.90
10873;DHT22;34586;53.616;10.032;2022-09-03T16:05:45;22.10;99.90
10873;DHT22;34586;53.616;10.032;2022-09-03T16:08:24;22.10;99.90
10873;DHT22;34586;53.616;10.032;2022-09-03T16:22:43;21.70;99.90
10873;DHT22;34586;53.616;10.032;2022-09-03T16:25:16;21.60;99.90
10873;DHT22;34586;53.616;10.032;2022-09-03T16:30:51;21.60;99.90
10873;DHT22;34586;53.616;10.032;2022-09-03T16:38:48;21.40;99.90
10873;DHT22;34586;53.616;10.032;2022-09-03T16:41:40;21.40;99.90
10873;DHT22;34586;53.616;10.032;2022-09-03T16:44:30;21.20;99.90
10873;DHT22;34586;53.616;10.032;2022-09-03T16:47:13;21.10;1.00
10873;DHT22;34586;53.616;10.032;2022-09-03T16:55:18;21.00;1.00
10873;DHT22;34586;53.616;10.032;2022-09-03T16:57:55;21.00;1.00
10873;DHT22;34586;53.616;10.032;2022-09-03T17:00:52;21.00;1.00
10873;DHT22;34586;53.616;10.032;2022-09-03T17:14:57;20.60;1.00
10873;DHT22;34586;53.616;10.032;2022-09-03T17:17:59;20.60;1.00
10873;DHT22;34586;53.616;10.032;2022-09-03T17:20:36;20.50;1.00
10873;DHT22;34586;53.616;10.032;2022-09-03T17:25:51;20.50;1.00
10873;DHT22;34586;53.616;10.032;2022-09-03T17:31:23;20.30;1.00
10873;DHT22;34586;53.616;10.032;2022-09-03T17:34:03;20.20;1.00
10873;DHT22;34586;53.616;10.032;2022-09-03T17:36:37;20.20;1.00
10873;DHT22;34586;53.616;10.032;2022-09-03T17:39:29;20.10;1.00
10873;DHT22;34586;53.616;10.032;2022-09-03T17:42:16;20.00;1.00
10873;DHT22;34586;53.616;10.032;2022-09-03T17:45:08;19.90;1.00
10873;DHT22;34586;53.616;10.032;2022-09-03T17:53:29;19.70;1.00
10873;DHT22;34586;53.616;10.032;2022-09-03T17:56:05;19.60;1.00
10873;DHT22;34586;53.616;10.032;2022-09-03T18:02:24;19.50;1.00
10873;DHT22;34586;53.616;10.032;2022-09-03T18:04:52;19.40;1.00
10873;DHT22;34586;53.616;10.032;2022-09-03T18:07:32;19.30;1.00
10873;DHT22;34586;53.616;10.032;2022-09-03T18:15:36;19.00;1.00
10873;DHT22;34586;53.616;10.032;2022-09-03T18:18:08;18.90;1.00
10873;DHT22;34586;53.616;10.032;2022-09-03T18:20:46;18.90;1.00
10873;DHT22;34586;53.616;10.032;2022-09-03T18:26:33;18.80;1.00
10873;DHT22;34586;53.616;10.032;2022-09-03T18:29:34;18.70;1.00
10873;DHT22;34586;53.616;10.032;2022-09-03T18:32:19;18.50;1.00
10873;DHT22;34586;53.616;10.032;2022-09-03T18:35:03;18.50;1.00
10873;DHT22;34586;53.616;10.032;2022-09-03T18:37:48;18.40;1.00
10873;DHT22;34586;53.616;10.032;2022-09-03T18:40:58;18.30;1.00
10873;DHT22;34586;53.616;10.032;2022-09-03T18:43:55;18.20;1.00
10873;DHT22;34586;53.616;10.032;2022-09-03T18:46:57;18.10;1.00
10873;DHT22;34586;53.616;10.032;2022-09-03T18:50:11;18.10;89.10
10873;DHT22;34586;53.616;10.032;2022-09-03T18:53:04;17.90;99.90
10873;DHT22;34586;53.616;10.032;2022-09-03T18:56:06;17.80;99.90
10873;DHT22;34586;53.616;10.032;2022-09-03T19:02:09;17.70;99.90
10873;DHT22;34586;53.616;10.032;2022-09-03T19:08:27;17.60;99.90
10873;DHT22;34586;53.616;10.032;2022-09-03T19:11:26;17.60;99.90
10873;DHT22;34586;53.616;10.032;2022-09-03T19:20:28;17.40;99.90
10873;DHT22;34586;53.616;10.032;2022-09-03T19:23:13;17.30;99.90
10873;DHT22;34586;53.616;10.032;2022-09-03T19:26:04;17.30;99.90
10873;DHT22;34586;53.616;10.032;2022-09-03T19:28:55;17.30;1.00
10873;DHT22;34586;53.616;10.032;2022-09-03T19:31:58;17.20;1.00
10873;DHT22;34586;53.616;10.032;2022-09-03T19:38:10;17.20;1.00
10873;DHT22;34586;53.616;10.032;2022-09-03T19:50:37;17.00;1.00
10873;DHT22;34586;53.616;10.032;2022-09-03T19:53:22;16.90;1.00
10873;DHT22;34586;53.616;10.032;2022-09-03T19:56:16;16.90;1.00
10873;DHT22;34586;53.616;10.032;2022-09-03T19:59:06;16.90;1.00
10873;DHT22;34586;53.616;10.032;2022-09-03T20:01:52;16.80;1.00
10873;DHT22;34586;53.616;10.032;2022-09-03T20:04:57;16.80;1.00
10873;DHT22;34586;53.616;10.032;2022-09-03T20:07:42;16.80;1.00
10873;DHT22;34586;53.616;10.032;2022-09-03T20:10:27;16.80;1.00
10873;DHT22;34586;53.616;10.032;2022-09-03T20:18:55;16.70;1.00
10873;DHT22;34586;53.616;10.032;2022-09-03T20:32:39;16.50;88.40
10873;DHT22;34586;53.616;10.032;2022-09-03T20:40:52;16.40;99.90
10873;DHT22;34586;53.616;10.032;2022-09-03T20:43:40;16.30;99.90
10873;DHT22;34586;53.616;10.032;2022-09-03T20:46:38;16.30;99.90
10873;DHT22;34586;53.616;10.032;2022-09-03T20:49:40;16.30;99.90
10873;DHT22;34586;53.616;10.032;2022-09-03T20:52:25;16.30;99.90
10873;DHT22;34586;53.616;10.032;2022-09-03T20:55:27;16.30;99.90
10873;DHT22;34586;53.616;10.032;2022-09-03T21:00:51;16.30;99.90
10873;DHT22;34586;53.616;10.032;2022-09-03T21:03:21;16.50;99.90